sensor_id;sensor_type;location;lat;lon;timestamp;temperature;humidity
28520;DHT22;15732;48.534;20.382;2023-06-04T00:00:53;14.50;99.90
28520;DHT22;15732;48.534;20.382;2023-06-04T00:03:26;14.60;99.90
28520;DHT22;15732;48.534;20.382;2023-06-04T00:05:53;14.60;99.90
28520;DHT22;15732;48.534;20.382;2023-06-04T00:08:23;14.50;99.90
28520;DHT22;15732;48.534;20.382;2023-06-04T00:10:50;14.50;99.90
28520;DHT22;15732;48.534;20.382;2023-06-04T00:13:17;14.50;99.90
28520;DHT22;15732;48.534;20.382;2023-06-04T00:15:43;14.40;99.90
28520;DHT22;15732;48.534;20.382;2023-06-04T00:18:10;14.30;99.90
28520;DHT22;15732;48.534;20.382;2023-06-04T00:20:39;14.30;99.90
28520;DHT22;15732;48.534;20.382;2023-06-04T00:23:06;14.30;99.90
28520;DHT22;15732;48.534;20.382;2023-06-04T00:25:33;14.20;99.90
28520;DHT22;15732;48.534;20.382;2023-06-04T00:27:59;14.20;99.90
28520;DHT22;15732;48.534;20.382;2023-06-04T00:30:26;14.10;99.90
28520;DHT22;15732;48.534;20.382;2023-06-04T00:32:53;14.10;99.90
28520;DHT22;15732;48.534;20.382;2023-06-04T00:35:23;14.10;99.90
28520;DHT22;15732;48.534;20.382;2023-06-04T00:37:50;14.10;99.90
28520;DHT22;15732;48.534;20.382;2023-06-04T00:40:17;14.00;99.90
28520;DHT22;15732;48.534;20.382;2023-06-04T00:42:44;14.10;99.90
28520;DHT22;15732;48.534;20.382;2023-06-04T00:45:11;13.80;99.90
28520;DHT22;15732;48.534;20.382;2023-06-04T00:47:39;13.50;99.90
28520;DHT22;15732;48.534;20.382;2023-06-04T00:50:10;13.40;99.90
28520;DHT22;15732;48.534;20.382;2023-06-04T00:52:37;13.40;99.90
28520;DHT22;15732;48.534;20.382;2023-06-04T00:55:08;13.40;99.90
28520;DHT22;15732;48.534;20.382;2023-06-04T00:57:37;13.30;99.90
28520;DHT22;15732;48.534;20.382;2023-06-04T01:00:03;13.30;99.90
28520;DHT22;15732;48.534;20.382;2023-06-04T01:02:32;13.40;99.90
28520;DHT22;15732;48.534;20.382;2023-06-04T01:07:26;13.50;99.90
28520;DHT22;15732;48.534;20.382;2023-06-04T01:09:56;13.50;99.90
28520;DHT22;15732;48.534;20.382;2023-06-04T01:12:23;13.60;99.90
28520;DHT22;15732;48.534;20.382;2023-06-04T01:14:49;13.60;99.90
28520;DHT22;15732;48.534;20.382;2023-06-04T01:17:21;13.70;99.90
28520;DHT22;15732;48.534;20.382;2023-06-04T01:22:31;13.40;99.90
28520;DHT22;15732;48.534;20.382;2023-06-04T01:25:05;13.30;99.90
28520;DHT22;15732;48.534;20.382;2023-06-04T01:27:35;13.10;99.90
28520;DHT22;15732;48.534;20.382;2023-06-04T01:30:02;12.80;99.90
28520;DHT22;15732;48.534;20.382;2023-06-04T01:32:29;12.60;99.90
28520;DHT22;15732;48.534;20.382;2023-06-04T01:34:56;12.50;99.90
28520;DHT22;15732;48.534;20.382;2023-06-04T01:37:23;12.40;99.90
28520;DHT22;15732;48.534;20.382;2023-06-04T01:39:50;12.50;99.90
28520;DHT22;15732;48.534;20.382;2023-06-04T01:42:16;12.40;99.90
28520;DHT22;15732;48.534;20.382;2023-06-04T01:44:43;12.50;99.90
28520;DHT22;15732;48.534;20.382;2023-06-04T01:47:10;12.60;99.90
28520;DHT22;15732;48.534;20.382;2023-06-04T01:49:37;12.70;99.90
28520;DHT22;15732;48.534;20.382;2023-06-04T01:52:03;12.70;99.90
28520;DHT22;15732;48.534;20.382;2023-06-04T01:54:31;12.80;99.90
28520;DHT22;15732;48.534;20.382;2023-06-04T01:56:59;12.80;99.90
28520;DHT22;15732;48.534;20.382;2023-06-04T01:59:26;12.60;99.90
28520;DHT22;15732;48.534;20.382;2023-06-04T02:01:53;12.40;99.90
28520;DHT22;15732;48.534;20.382;2023-06-04T02:04:20;12.30;99.90
28520;DHT22;15732;48.534;20.382;2023-06-04T02:06:47;12.30;99.90
28520;DHT22;15732;48.534;20.382;2023-06-04T02:09:17;12.30;99.90
28520;DHT22;15732;48.534;20.382;2023-06-04T02:11:44;12.20;99.90
28520;DHT22;15732;48.534;20.382;2023-06-04T02:14:11;12.30;99.90
28520;DHT22;15732;48.534;20.382;2023-06-04T02:16:41;12.30;99.90
28520;DHT22;15732;48.534;20.382;2023-06-04T02:19:08;12.20;99.90
28520;DHT22;15732;48.534;20.382;2023-06-04T02:21:38;12.20;99.90
28520;DHT22;15732;48.534;20.382;2023-06-04T02:24:05;12.20;99.90
28520;DHT22;15732;48.534;20.382;2023-06-04T02:26:32;12.20;99.90
28520;DHT22;15732;48.534;20.382;2023-06-04T02:28:59;12.20;99.90
28520;DHT22;15732;48.534;20.382;2023-06-04T02:31:26;12.20;99.90
28520;DHT22;15732;48.534;20.382;2023-06-04T02:33:52;12.10;99.90
28520;DHT22;15732;48.534;20.382;2023-06-04T02:36:19;12.00;99.90
28520;DHT22;15732;48.534;20.382;2023-06-04T02:38:46;11.90;99.90
28520;DHT22;15732;48.534;20.382;2023-06-04T02:41:13;11.70;99.90
28520;DHT22;15732;48.534;20.382;2023-06-04T02:43:40;11.60;99.90
28520;DHT22;15732;48.534;20.382;2023-06-04T02:46:06;11.40;99.90
28520;DHT22;15732;48.534;20.382;2023-06-04T02:48:33;11.20;99.90
28520;DHT22;15732;48.534;20.382;2023-06-04T02:51:00;11.20;99.90
28520;DHT22;15732;48.534;20.382;2023-06-04T02:53:31;11.20;99.90
28520;DHT22;15732;48.534;20.382;2023-06-04T02:56:01;11.30;99.90
28520;DHT22;15732;48.534;20.382;2023-06-04T02:58:28;11.30;99.90
28520;DHT22;15732;48.534;20.382;2023-06-04T03:01:00;11.20;99.90
28520;DHT22;15732;48.534;20.382;2023-06-04T03:03:27;11.30;99.90
28520;DHT22;15732;48.534;20.382;2023-06-04T03:05:53;11.20;99.90
28520;DHT22;15732;48.534;20.382;2023-06-04T03:08:20;11.00;99.90
28520;DHT22;15732;48.534;20.382;2023-06-04T03:10:47;10.90;99.90
28520;DHT22;15732;48.534;20.382;2023-06-04T03:13:14;10.90;99.90
28520;DHT22;15732;48.534;20.382;2023-06-04T03:15:41;10.90;99.90
28520;DHT22;15732;48.534;20.382;2023-06-04T03:18:08;10.80;99.90
28520;DHT22;15732;48.534;20.382;2023-06-04T03:20:34;10.70;99.90
28520;DHT22;15732;48.534;20.382;2023-06-04T03:23:04;10.70;99.90
28520;DHT22;15732;48.534;20.382;2023-06-04T03:25:34;10.60;99.90
28520;DHT22;15732;48.534;20.382;2023-06-04T03:28:01;10.40;99.90
28520;DHT22;15732;48.534;20.382;2023-06-04T03:30:28;10.30;99.90
28520;DHT22;15732;48.534;20.382;2023-06-04T03:32:54;10.20;99.90
28520;DHT22;15732;48.534;20.382;2023-06-04T03:35:21;10.20;99.90
28520;DHT22;15732;48.534;20.382;2023-06-04T03:37:48;10.20;99.90
28520;DHT22;15732;48.534;20.382;2023-06-04T03:40:15;10.30;99.90
28520;DHT22;15732;48.534;20.382;2023-06-04T03:42:41;10.30;99.90
28520;DHT22;15732;48.534;20.382;2023-06-04T03:45:08;10.40;99.90
28520;DHT22;15732;48.534;20.382;2023-06-04T03:47:35;10.50;99.90
28520;DHT22;15732;48.534;20.382;2023-06-04T03:50:02;10.50;99.90
28520;DHT22;15732;48.534;20.382;2023-06-04T03:52:29;10.70;99.90
28520;DHT22;15732;48.534;20.382;2023-06-04T03:54:56;10.80;99.90
28520;DHT22;15732;48.534;20.382;2023-06-04T03:57:22;10.70;99.90
28520;DHT22;15732;48.534;20.382;2023-06-04T03:59:49;10.70;99.90
28520;DHT22;15732;48.534;20.382;2023-06-04T04:02:19;10.80;99.90
28520;DHT22;15732;48.534;20.382;2023-06-04T04:04:46;11.00;99.90
28520;DHT22;15732;48.534;20.382;2023-06-04T04:07:12;11.10;99.90
28520;DHT22;15732;48.534;20.382;2023-06-04T04:09:39;11.10;99.90
28520;DHT22;15732;48.534;20.382;2023-06-04T04:12:06;11.20;99.90
28520;DHT22;15732;48.534;20.382;2023-06-04T04:14:32;11.30;99.90
28520;DHT22;15732;48.534;20.382;2023-06-04T04:16:59;11.30;99.90
28520;DHT22;15732;48.534;20.382;2023-06-04T04:19:26;11.40;99.90
28520;DHT22;15732;48.534;20.382;2023-06-04T04:21:54;11.40;99.90
28520;DHT22;15732;48.534;20.382;2023-06-04T04:24:24;11.50;99.90
28520;DHT22;15732;48.534;20.382;2023-06-04T04:26:50;11.50;99.90
28520;DHT22;15732;48.534;20.382;2023-06-04T04:29:22;11.60;99.90
28520;DHT22;15732;48.534;20.382;2023-06-04T04:32:08;11.60;99.90
28520;DHT22;15732;48.534;20.382;2023-06-04T04:34:38;11.60;99.90
28520;DHT22;15732;48.534;20.382;2023-06-04T04:37:08;11.50;99.90
28520;DHT22;15732;48.534;20.382;2023-06-04T04:39:35;11.70;99.90
28520;DHT22;15732;48.534;20.382;2023-06-04T04:42:02;11.70;99.90
28520;DHT22;15732;48.534;20.382;2023-06-04T04:44:29;11.80;99.90
28520;DHT22;15732;48.534;20.382;2023-06-04T04:46:56;11.90;99.90
28520;DHT22;15732;48.534;20.382;2023-06-04T04:49:23;11.90;99.90
28520;DHT22;15732;48.534;20.382;2023-06-04T04:51:49;12.00;99.90
28520;DHT22;15732;48.534;20.382;2023-06-04T04:54:16;12.20;99.90
28520;DHT22;15732;48.534;20.382;2023-06-04T04:56:43;12.10;99.90
28520;DHT22;15732;48.534;20.382;2023-06-04T04:59:14;12.20;99.90
28520;DHT22;15732;48.534;20.382;2023-06-04T05:01:40;12.30;99.90
28520;DHT22;15732;48.534;20.382;2023-06-04T05:04:07;12.40;99.90
28520;DHT22;15732;48.534;20.382;2023-06-04T05:06:33;12.40;99.90
28520;DHT22;15732;48.534;20.382;2023-06-04T05:09:00;12.50;99.90
28520;DHT22;15732;48.534;20.382;2023-06-04T05:11:27;12.70;99.90
28520;DHT22;15732;48.534;20.382;2023-06-04T05:13:53;12.90;99.90
28520;DHT22;15732;48.534;20.382;2023-06-04T05:16:20;12.90;99.90
28520;DHT22;15732;48.534;20.382;2023-06-04T05:18:48;13.20;99.90
28520;DHT22;15732;48.534;20.382;2023-06-04T05:21:17;13.30;99.90
28520;DHT22;15732;48.534;20.382;2023-06-04T05:23:44;13.50;99.90
28520;DHT22;15732;48.534;20.382;2023-06-04T05:26:14;13.60;99.90
28520;DHT22;15732;48.534;20.382;2023-06-04T05:28:41;13.70;99.90
28520;DHT22;15732;48.534;20.382;2023-06-04T05:31:10;13.70;99.90
28520;DHT22;15732;48.534;20.382;2023-06-04T05:33:42;13.70;99.90
28520;DHT22;15732;48.534;20.382;2023-06-04T05:36:08;13.80;99.90
28520;DHT22;15732;48.534;20.382;2023-06-04T05:38:39;14.00;99.90
28520;DHT22;15732;48.534;20.382;2023-06-04T05:41:06;14.10;99.90
28520;DHT22;15732;48.534;20.382;2023-06-04T05:43:32;14.30;99.90
28520;DHT22;15732;48.534;20.382;2023-06-04T05:46:03;14.40;99.90
28520;DHT22;15732;48.534;20.382;2023-06-04T05:48:32;14.60;99.90
28520;DHT22;15732;48.534;20.382;2023-06-04T05:50:58;14.70;99.90
28520;DHT22;15732;48.534;20.382;2023-06-04T05:53:25;14.80;99.90
28520;DHT22;15732;48.534;20.382;2023-06-04T05:55:52;14.90;99.90
28520;DHT22;15732;48.534;20.382;2023-06-04T05:58:19;15.10;99.90
28520;DHT22;15732;48.534;20.382;2023-06-04T06:00:50;15.30;99.90
28520;DHT22;15732;48.534;20.382;2023-06-04T06:03:16;15.30;99.90
28520;DHT22;15732;48.534;20.382;2023-06-04T06:05:47;15.40;99.90
28520;DHT22;15732;48.534;20.382;2023-06-04T06:08:14;15.60;99.90
28520;DHT22;15732;48.534;20.382;2023-06-04T06:10:41;15.70;99.90
28520;DHT22;15732;48.534;20.382;2023-06-04T06:13:08;15.70;99.90
28520;DHT22;15732;48.534;20.382;2023-06-04T06:15:35;15.70;99.90
28520;DHT22;15732;48.534;20.382;2023-06-04T06:18:01;15.80;99.90
28520;DHT22;15732;48.534;20.382;2023-06-04T06:20:28;16.00;99.90
28520;DHT22;15732;48.534;20.382;2023-06-04T06:22:55;16.10;99.90
28520;DHT22;15732;48.534;20.382;2023-06-04T06:25:22;16.10;99.90
28520;DHT22;15732;48.534;20.382;2023-06-04T06:27:52;16.20;99.90
28520;DHT22;15732;48.534;20.382;2023-06-04T06:30:23;16.40;99.90
28520;DHT22;15732;48.534;20.382;2023-06-04T06:32:49;16.50;99.90
28520;DHT22;15732;48.534;20.382;2023-06-04T06:35:17;16.50;99.90
28520;DHT22;15732;48.534;20.382;2023-06-04T06:37:43;16.70;99.90
28520;DHT22;15732;48.534;20.382;2023-06-04T06:40:10;16.70;99.90
28520;DHT22;15732;48.534;20.382;2023-06-04T06:42:37;16.90;99.90
28520;DHT22;15732;48.534;20.382;2023-06-04T06:45:03;17.10;99.90
28520;DHT22;15732;48.534;20.382;2023-06-04T06:47:32;17.30;99.90
28520;DHT22;15732;48.534;20.382;2023-06-04T06:49:59;17.50;99.90
28520;DHT22;15732;48.534;20.382;2023-06-04T06:52:29;17.60;99.90
28520;DHT22;15732;48.534;20.382;2023-06-04T06:54:56;17.70;99.90
28520;DHT22;15732;48.534;20.382;2023-06-04T06:57:23;17.80;99.90
28520;DHT22;15732;48.534;20.382;2023-06-04T06:59:50;17.90;99.90
28520;DHT22;15732;48.534;20.382;2023-06-04T07:02:19;18.00;99.90
28520;DHT22;15732;48.534;20.382;2023-06-04T07:04:50;18.20;99.90
28520;DHT22;15732;48.534;20.382;2023-06-04T07:07:16;18.40;99.90
28520;DHT22;15732;48.534;20.382;2023-06-04T07:09:47;18.50;99.90
28520;DHT22;15732;48.534;20.382;2023-06-04T07:12:14;18.60;99.90
28520;DHT22;15732;48.534;20.382;2023-06-04T07:14:44;18.70;99.90
28520;DHT22;15732;48.534;20.382;2023-06-04T07:17:11;18.90;99.90
28520;DHT22;15732;48.534;20.382;2023-06-04T07:19:38;19.00;99.90
28520;DHT22;15732;48.534;20.382;2023-06-04T07:22:05;19.10;99.90
28520;DHT22;15732;48.534;20.382;2023-06-04T07:24:31;19.20;99.90
28520;DHT22;15732;48.534;20.382;2023-06-04T07:26:58;19.40;99.90
28520;DHT22;15732;48.534;20.382;2023-06-04T07:29:25;19.50;99.90
28520;DHT22;15732;48.534;20.382;2023-06-04T07:31:51;19.50;99.90
28520;DHT22;15732;48.534;20.382;2023-06-04T07:34:18;19.60;99.90
28520;DHT22;15732;48.534;20.382;2023-06-04T07:36:45;19.70;99.90
28520;DHT22;15732;48.534;20.382;2023-06-04T07:39:12;19.90;99.90
28520;DHT22;15732;48.534;20.382;2023-06-04T07:41:39;20.00;99.90
28520;DHT22;15732;48.534;20.382;2023-06-04T07:44:06;20.10;99.90
28520;DHT22;15732;48.534;20.382;2023-06-04T07:46:36;20.20;99.90
28520;DHT22;15732;48.534;20.382;2023-06-04T07:49:03;20.20;99.90
28520;DHT22;15732;48.534;20.382;2023-06-04T07:51:34;20.30;99.90
28520;DHT22;15732;48.534;20.382;2023-06-04T07:54:01;20.30;99.90
28520;DHT22;15732;48.534;20.382;2023-06-04T07:56:28;20.40;99.90
28520;DHT22;15732;48.534;20.382;2023-06-04T07:58:54;20.40;99.90
28520;DHT22;15732;48.534;20.382;2023-06-04T08:01:25;20.50;99.90
28520;DHT22;15732;48.534;20.382;2023-06-04T08:03:52;20.50;99.90
28520;DHT22;15732;48.534;20.382;2023-06-04T08:06:19;20.50;99.90
28520;DHT22;15732;48.534;20.382;2023-06-04T08:08:45;20.60;99.90
28520;DHT22;15732;48.534;20.382;2023-06-04T08:11:14;20.60;99.90
28520;DHT22;15732;48.534;20.382;2023-06-04T08:13:41;20.60;99.90
28520;DHT22;15732;48.534;20.382;2023-06-04T08:16:11;20.70;99.90
28520;DHT22;15732;48.534;20.382;2023-06-04T08:18:41;20.70;99.90
28520;DHT22;15732;48.534;20.382;2023-06-04T08:21:09;20.70;99.90
28520;DHT22;15732;48.534;20.382;2023-06-04T08:23:36;20.80;99.90
28520;DHT22;15732;48.534;20.382;2023-06-04T08:26:03;20.80;99.90
28520;DHT22;15732;48.534;20.382;2023-06-04T08:28:30;20.80;99.90
28520;DHT22;15732;48.534;20.382;2023-06-04T08:30:56;20.90;99.90
28520;DHT22;15732;48.534;20.382;2023-06-04T08:33:23;20.90;99.90
28520;DHT22;15732;48.534;20.382;2023-06-04T08:35:50;20.90;99.90
28520;DHT22;15732;48.534;20.382;2023-06-04T08:38:16;21.00;99.90
28520;DHT22;15732;48.534;20.382;2023-06-04T08:40:43;21.00;99.90
28520;DHT22;15732;48.534;20.382;2023-06-04T08:43:10;21.10;99.90
28520;DHT22;15732;48.534;20.382;2023-06-04T08:45:39;21.00;99.90
28520;DHT22;15732;48.534;20.382;2023-06-04T08:48:09;21.10;99.90
28520;DHT22;15732;48.534;20.382;2023-06-04T08:50:37;21.10;99.90
28520;DHT22;15732;48.534;20.382;2023-06-04T08:53:09;21.10;99.90
28520;DHT22;15732;48.534;20.382;2023-06-04T08:55:37;21.20;99.90
28520;DHT22;15732;48.534;20.382;2023-06-04T08:58:08;21.20;99.90
28520;DHT22;15732;48.534;20.382;2023-06-04T09:00:36;21.30;99.90
28520;DHT22;15732;48.534;20.382;2023-06-04T09:03:03;21.30;99.90
28520;DHT22;15732;48.534;20.382;2023-06-04T09:05:29;21.30;99.90
28520;DHT22;15732;48.534;20.382;2023-06-04T09:07:59;21.40;99.90
28520;DHT22;15732;48.534;20.382;2023-06-04T09:10:26;21.40;99.90
28520;DHT22;15732;48.534;20.382;2023-06-04T09:12:56;21.50;99.90
28520;DHT22;15732;48.534;20.382;2023-06-04T09:15:24;21.50;99.90
28520;DHT22;15732;48.534;20.382;2023-06-04T09:17:50;21.50;99.90
28520;DHT22;15732;48.534;20.382;2023-06-04T09:20:21;21.50;99.90
28520;DHT22;15732;48.534;20.382;2023-06-04T09:22:48;21.60;99.90
28520;DHT22;15732;48.534;20.382;2023-06-04T09:25:27;21.60;99.90
28520;DHT22;15732;48.534;20.382;2023-06-04T09:27:53;21.60;99.90
28520;DHT22;15732;48.534;20.382;2023-06-04T09:30:24;21.60;99.90
28520;DHT22;15732;48.534;20.382;2023-06-04T09:32:52;21.60;99.90
28520;DHT22;15732;48.534;20.382;2023-06-04T09:35:19;21.60;99.90
28520;DHT22;15732;48.534;20.382;2023-06-04T09:37:53;21.50;99.90
28520;DHT22;15732;48.534;20.382;2023-06-04T09:40:24;21.50;99.90
28520;DHT22;15732;48.534;20.382;2023-06-04T09:42:55;21.60;99.90
28520;DHT22;15732;48.534;20.382;2023-06-04T09:45:26;21.60;99.90
28520;DHT22;15732;48.534;20.382;2023-06-04T09:47:54;21.60;99.90
28520;DHT22;15732;48.534;20.382;2023-06-04T09:50:26;21.60;99.90
28520;DHT22;15732;48.534;20.382;2023-06-04T09:52:53;21.60;99.90
28520;DHT22;15732;48.534;20.382;2023-06-04T09:55:20;21.60;99.90
28520;DHT22;15732;48.534;20.382;2023-06-04T09:57:49;21.60;99.90
28520;DHT22;15732;48.534;20.382;2023-06-04T10:00:19;21.60;99.90
28520;DHT22;15732;48.534;20.382;2023-06-04T10:02:50;21.60;99.90
28520;DHT22;15732;48.534;20.382;2023-06-04T10:05:18;21.70;99.90
28520;DHT22;15732;48.534;20.382;2023-06-04T10:07:47;21.70;99.90
28520;DHT22;15732;48.534;20.382;2023-06-04T10:10:19;21.70;99.90
28520;DHT22;15732;48.534;20.382;2023-06-04T10:12:49;21.80;99.90
28520;DHT22;15732;48.534;20.382;2023-06-04T10:15:16;21.80;99.90
28520;DHT22;15732;48.534;20.382;2023-06-04T10:17:43;21.80;99.90
28520;DHT22;15732;48.534;20.382;2023-06-04T10:20:14;21.80;99.90
28520;DHT22;15732;48.534;20.382;2023-06-04T10:22:40;21.90;99.90
28520;DHT22;15732;48.534;20.382;2023-06-04T10:25:08;21.90;99.90
28520;DHT22;15732;48.534;20.382;2023-06-04T10:27:36;21.90;99.90
28520;DHT22;15732;48.534;20.382;2023-06-04T10:30:03;21.90;99.90
28520;DHT22;15732;48.534;20.382;2023-06-04T10:32:30;21.90;99.90
28520;DHT22;15732;48.534;20.382;2023-06-04T10:34:57;22.00;99.90
28520;DHT22;15732;48.534;20.382;2023-06-04T10:37:24;22.00;99.90
28520;DHT22;15732;48.534;20.382;2023-06-04T10:39:55;22.00;99.90
28520;DHT22;15732;48.534;20.382;2023-06-04T10:42:22;22.00;99.90
28520;DHT22;15732;48.534;20.382;2023-06-04T10:44:53;22.00;99.90
28520;DHT22;15732;48.534;20.382;2023-06-04T10:47:24;21.90;99.90
28520;DHT22;15732;48.534;20.382;2023-06-04T10:49:51;21.90;99.90
28520;DHT22;15732;48.534;20.382;2023-06-04T10:52:18;21.90;99.90
28520;DHT22;15732;48.534;20.382;2023-06-04T10:54:49;21.90;99.90
28520;DHT22;15732;48.534;20.382;2023-06-04T10:57:19;21.90;99.90
28520;DHT22;15732;48.534;20.382;2023-06-04T10:59:56;21.90;99.90
28520;DHT22;15732;48.534;20.382;2023-06-04T11:02:26;21.90;99.90
28520;DHT22;15732;48.534;20.382;2023-06-04T11:05:02;22.00;99.90
28520;DHT22;15732;48.534;20.382;2023-06-04T11:07:41;22.00;99.90
28520;DHT22;15732;48.534;20.382;2023-06-04T11:10:10;22.00;99.90
28520;DHT22;15732;48.534;20.382;2023-06-04T11:12:43;22.00;99.90
28520;DHT22;15732;48.534;20.382;2023-06-04T11:15:12;21.90;99.90
28520;DHT22;15732;48.534;20.382;2023-06-04T11:17:55;21.90;99.90
28520;DHT22;15732;48.534;20.382;2023-06-04T11:20:28;21.90;99.90
28520;DHT22;15732;48.534;20.382;2023-06-04T11:22:55;21.90;99.90
28520;DHT22;15732;48.534;20.382;2023-06-04T11:25:25;21.90;99.90
28520;DHT22;15732;48.534;20.382;2023-06-04T11:27:52;21.90;99.90
28520;DHT22;15732;48.534;20.382;2023-06-04T11:30:19;21.90;99.90
28520;DHT22;15732;48.534;20.382;2023-06-04T11:32:46;21.90;99.90
28520;DHT22;15732;48.534;20.382;2023-06-04T11:35:16;21.90;99.90
28520;DHT22;15732;48.534;20.382;2023-06-04T11:37:52;21.80;99.90
28520;DHT22;15732;48.534;20.382;2023-06-04T11:40:19;21.90;99.90
28520;DHT22;15732;48.534;20.382;2023-06-04T11:42:46;21.80;99.90
28520;DHT22;15732;48.534;20.382;2023-06-04T11:45:13;21.80;99.90
28520;DHT22;15732;48.534;20.382;2023-06-04T11:48:00;21.80;99.90
28520;DHT22;15732;48.534;20.382;2023-06-04T11:50:27;21.80;99.90
28520;DHT22;15732;48.534;20.382;2023-06-04T11:52:54;21.80;99.90
28520;DHT22;15732;48.534;20.382;2023-06-04T11:55:20;21.80;99.90
28520;DHT22;15732;48.534;20.382;2023-06-04T11:57:47;21.80;99.90
28520;DHT22;15732;48.534;20.382;2023-06-04T12:00:15;21.80;99.90
28520;DHT22;15732;48.534;20.382;2023-06-04T12:02:50;21.80;99.90
28520;DHT22;15732;48.534;20.382;2023-06-04T12:05:20;21.90;99.90
28520;DHT22;15732;48.534;20.382;2023-06-04T12:07:51;21.90;99.90
28520;DHT22;15732;48.534;20.382;2023-06-04T12:10:18;21.90;99.90
28520;DHT22;15732;48.534;20.382;2023-06-04T12:12:45;21.90;99.90
28520;DHT22;15732;48.534;20.382;2023-06-04T12:15:12;21.90;99.90
28520;DHT22;15732;48.534;20.382;2023-06-04T12:17:49;21.90;99.90
28520;DHT22;15732;48.534;20.382;2023-06-04T12:20:15;22.00;99.90
28520;DHT22;15732;48.534;20.382;2023-06-04T12:22:45;22.00;99.90
28520;DHT22;15732;48.534;20.382;2023-06-04T12:25:22;22.00;99.90
28520;DHT22;15732;48.534;20.382;2023-06-04T12:27:49;22.00;99.90
28520;DHT22;15732;48.534;20.382;2023-06-04T12:30:16;22.10;99.90
28520;DHT22;15732;48.534;20.382;2023-06-04T12:32:43;22.10;99.90
28520;DHT22;15732;48.534;20.382;2023-06-04T12:35:11;22.10;99.90
28520;DHT22;15732;48.534;20.382;2023-06-04T12:37:37;22.10;99.90
28520;DHT22;15732;48.534;20.382;2023-06-04T12:40:08;22.20;99.90
28520;DHT22;15732;48.534;20.382;2023-06-04T12:42:35;22.20;99.90
28520;DHT22;15732;48.534;20.382;2023-06-04T12:45:01;22.20;99.90
28520;DHT22;15732;48.534;20.382;2023-06-04T12:47:29;22.20;99.90
28520;DHT22;15732;48.534;20.382;2023-06-04T12:49:57;22.20;99.90
28520;DHT22;15732;48.534;20.382;2023-06-04T12:52:23;22.30;99.90
28520;DHT22;15732;48.534;20.382;2023-06-04T12:54:51;22.30;99.90
28520;DHT22;15732;48.534;20.382;2023-06-04T12:57:17;22.30;99.90
28520;DHT22;15732;48.534;20.382;2023-06-04T12:59:44;22.40;99.90
28520;DHT22;15732;48.534;20.382;2023-06-04T13:02:11;22.40;99.90
28520;DHT22;15732;48.534;20.382;2023-06-04T13:04:38;22.40;99.90
28520;DHT22;15732;48.534;20.382;2023-06-04T13:07:10;22.40;99.90
28520;DHT22;15732;48.534;20.382;2023-06-04T13:09:37;22.50;99.90
28520;DHT22;15732;48.534;20.382;2023-06-04T13:12:03;22.50;99.90
28520;DHT22;15732;48.534;20.382;2023-06-04T13:14:32;22.50;99.90
28520;DHT22;15732;48.534;20.382;2023-06-04T13:16:59;22.50;99.90
28520;DHT22;15732;48.534;20.382;2023-06-04T13:19:30;22.60;99.90
28520;DHT22;15732;48.534;20.382;2023-06-04T13:21:57;22.60;99.90
28520;DHT22;15732;48.534;20.382;2023-06-04T13:24:24;22.60;99.90
28520;DHT22;15732;48.534;20.382;2023-06-04T13:26:55;22.60;99.90
28520;DHT22;15732;48.534;20.382;2023-06-04T13:29:23;22.60;99.90
28520;DHT22;15732;48.534;20.382;2023-06-04T13:31:50;22.60;99.90
28520;DHT22;15732;48.534;20.382;2023-06-04T13:34:16;22.70;99.90
28520;DHT22;15732;48.534;20.382;2023-06-04T13:36:42;22.70;99.90
28520;DHT22;15732;48.534;20.382;2023-06-04T13:39:09;22.70;99.90
28520;DHT22;15732;48.534;20.382;2023-06-04T13:41:39;22.70;99.90
28520;DHT22;15732;48.534;20.382;2023-06-04T13:44:06;22.70;99.90
28520;DHT22;15732;48.534;20.382;2023-06-04T13:46:33;22.70;99.90
28520;DHT22;15732;48.534;20.382;2023-06-04T13:49:00;22.70;99.90
28520;DHT22;15732;48.534;20.382;2023-06-04T13:51:31;22.80;99.90
28520;DHT22;15732;48.534;20.382;2023-06-04T13:54:01;22.80;99.90
28520;DHT22;15732;48.534;20.382;2023-06-04T13:56:28;22.70;99.90
28520;DHT22;15732;48.534;20.382;2023-06-04T13:58:55;22.70;99.90
28520;DHT22;15732;48.534;20.382;2023-06-04T14:01:22;22.70;99.90
28520;DHT22;15732;48.534;20.382;2023-06-04T14:03:49;22.70;99.90
28520;DHT22;15732;48.534;20.382;2023-06-04T14:06:16;22.70;99.90
28520;DHT22;15732;48.534;20.382;2023-06-04T14:08:46;22.70;99.90
28520;DHT22;15732;48.534;20.382;2023-06-04T14:11:17;22.70;99.90
28520;DHT22;15732;48.534;20.382;2023-06-04T14:13:44;22.70;99.90
28520;DHT22;15732;48.534;20.382;2023-06-04T14:16:11;22.70;99.90
28520;DHT22;15732;48.534;20.382;2023-06-04T14:18:41;22.70;99.90
28520;DHT22;15732;48.534;20.382;2023-06-04T14:21:12;22.70;99.90
28520;DHT22;15732;48.534;20.382;2023-06-04T14:23:38;22.70;99.90
28520;DHT22;15732;48.534;20.382;2023-06-04T14:26:05;22.80;99.90
28520;DHT22;15732;48.534;20.382;2023-06-04T14:28:36;22.80;99.90
28520;DHT22;15732;48.534;20.382;2023-06-04T14:31:02;22.80;99.90
28520;DHT22;15732;48.534;20.382;2023-06-04T14:33:33;22.80;99.90
28520;DHT22;15732;48.534;20.382;2023-06-04T14:36:01;22.80;99.90
28520;DHT22;15732;48.534;20.382;2023-06-04T14:38:28;22.80;99.90
28520;DHT22;15732;48.534;20.382;2023-06-04T14:40:55;22.80;99.90
28520;DHT22;15732;48.534;20.382;2023-06-04T14:43:22;22.80;99.90
28520;DHT22;15732;48.534;20.382;2023-06-04T14:45:49;22.80;99.90
28520;DHT22;15732;48.534;20.382;2023-06-04T14:48:16;22.80;99.90
28520;DHT22;15732;48.534;20.382;2023-06-04T14:50:43;22.80;99.90
28520;DHT22;15732;48.534;20.382;2023-06-04T14:53:10;22.70;99.90
28520;DHT22;15732;48.534;20.382;2023-06-04T14:55:37;22.80;99.90
28520;DHT22;15732;48.534;20.382;2023-06-04T14:58:04;22.70;99.90
28520;DHT22;15732;48.534;20.382;2023-06-04T15:00:31;22.70;99.90
28520;DHT22;15732;48.534;20.382;2023-06-04T15:03:02;22.70;99.90
28520;DHT22;15732;48.534;20.382;2023-06-04T15:05:29;22.70;99.90
28520;DHT22;15732;48.534;20.382;2023-06-04T15:07:55;22.70;99.90
28520;DHT22;15732;48.534;20.382;2023-06-04T15:10:22;22.60;99.90
28520;DHT22;15732;48.534;20.382;2023-06-04T15:12:48;22.60;99.90
28520;DHT22;15732;48.534;20.382;2023-06-04T15:15:15;22.60;99.90
28520;DHT22;15732;48.534;20.382;2023-06-04T15:17:42;22.60;99.90
28520;DHT22;15732;48.534;20.382;2023-06-04T15:20:09;22.60;99.90
28520;DHT22;15732;48.534;20.382;2023-06-04T15:22:36;22.60;99.90
28520;DHT22;15732;48.534;20.382;2023-06-04T15:25:07;22.60;99.90